createdAt,value
2019-06-15T00:01:09.995Z,16.30
2019-06-15T00:03:36.888Z,16.30
2019-06-15T00:06:03.946Z,16.30
2019-06-15T00:08:30.746Z,16.30
2019-06-15T00:10:57.566Z,16.30
2019-06-15T00:13:24.386Z,16.30
2019-06-15T00:15:51.161Z,16.10
2019-06-15T00:18:17.948Z,16.20
2019-06-15T00:20:44.871Z,16.20
2019-06-15T00:23:11.683Z,16.20
2019-06-15T00:25:38.469Z,16.30
2019-06-15T00:28:05.316Z,16.20
2019-06-15T00:30:32.110Z,16.20
2019-06-15T00:32:58.907Z,16.10
2019-06-15T00:35:25.926Z,16.20
2019-06-15T00:37:52.721Z,16.20
2019-06-15T00:40:19.711Z,16.20
2019-06-15T00:42:46.742Z,16.20
2019-06-15T00:45:13.792Z,16.30
2019-06-15T00:47:40.723Z,16.20
2019-06-15T00:50:07.745Z,16.20
2019-06-15T00:52:34.646Z,16.20
2019-06-15T00:55:01.573Z,16.20
2019-06-15T00:57:28.565Z,16.20
2019-06-15T00:59:55.353Z,16.20
2019-06-15T01:02:22.201Z,16.20
2019-06-15T01:04:49.099Z,16.30
2019-06-15T01:07:15.894Z,16.30
2019-06-15T01:09:42.719Z,16.30
2019-06-15T01:12:09.501Z,16.30
2019-06-15T01:14:36.295Z,16.20
2019-06-15T01:17:03.341Z,16.20
2019-06-15T01:19:30.447Z,16.20
2019-06-15T01:21:57.333Z,16.20
2019-06-15T01:24:24.154Z,16.10
2019-06-15T01:26:51.155Z,16.00
2019-06-15T01:29:17.937Z,16.00
2019-06-15T01:31:44.762Z,16.10
2019-06-15T01:34:11.557Z,16.10
2019-06-15T01:36:38.437Z,16.00
2019-06-15T01:39:05.603Z,16.10
2019-06-15T01:41:32.489Z,16.00
2019-06-15T01:43:59.294Z,16.00
2019-06-15T01:46:26.305Z,16.00
2019-06-15T01:48:53.097Z,16.00
2019-06-15T01:51:20.010Z,16.00
2019-06-15T01:53:46.790Z,15.90
2019-06-15T01:56:13.582Z,15.90
2019-06-15T01:58:40.414Z,15.90
2019-06-15T02:01:07.409Z,15.90
2019-06-15T02:03:34.415Z,15.90
2019-06-15T02:06:01.510Z,15.90
2019-06-15T02:08:28.305Z,15.90
2019-06-15T02:10:55.101Z,15.90
2019-06-15T02:13:21.990Z,15.90
2019-06-15T02:15:48.853Z,15.90
2019-06-15T02:18:15.847Z,15.90
2019-06-15T02:20:42.823Z,15.80
2019-06-15T02:23:09.705Z,15.80
2019-06-15T02:25:36.870Z,15.80
2019-06-15T02:28:03.955Z,15.80
2019-06-15T02:30:33.668Z,15.70
2019-06-15T02:33:00.800Z,15.70
2019-06-15T02:35:28.481Z,15.60
2019-06-15T02:37:55.671Z,15.60
2019-06-15T02:40:22.926Z,15.60
2019-06-15T02:42:49.925Z,15.60
2019-06-15T02:45:17.118Z,15.60
2019-06-15T02:47:44.134Z,15.60
2019-06-15T02:50:11.211Z,15.70
2019-06-15T02:52:38.192Z,15.80
2019-06-15T02:55:05.306Z,15.80
2019-06-15T02:57:32.203Z,15.80
2019-06-15T02:59:59.069Z,15.80
2019-06-15T03:02:25.929Z,15.90
2019-06-15T03:04:52.811Z,16.00
2019-06-15T03:07:19.694Z,16.10
2019-06-15T03:09:46.726Z,16.00
2019-06-15T03:12:13.613Z,16.00
2019-06-15T03:14:40.498Z,16.00
2019-06-15T03:17:07.430Z,16.00
2019-06-15T03:19:34.331Z,16.30
2019-06-15T03:22:01.234Z,16.90
2019-06-15T03:24:28.165Z,17.70
2019-06-15T03:26:54.964Z,18.40
2019-06-15T03:29:21.749Z,18.70
2019-06-15T03:31:48.551Z,18.10
2019-06-15T03:34:15.462Z,17.40
2019-06-15T03:36:42.301Z,17.00
2019-06-15T03:39:09.073Z,17.20
2019-06-15T03:41:35.970Z,16.90
2019-06-15T03:44:03.272Z,16.90
2019-06-15T03:46:30.226Z,17.40
2019-06-15T03:48:57.196Z,17.40
2019-06-15T03:51:24.206Z,17.70
2019-06-15T03:53:50.987Z,17.60
2019-06-15T03:56:21.922Z,17.40
2019-06-15T03:58:46.647Z,18.10
2019-06-15T04:01:20.990Z,18.70
2019-06-15T04:03:47.817Z,18.40
2019-06-15T04:06:14.606Z,18.60
2019-06-15T04:08:41.498Z,18.60
2019-06-15T04:11:08.414Z,18.50
2019-06-15T04:13:35.186Z,18.80
2019-06-15T04:16:02.172Z,19.70
2019-06-15T04:18:28.986Z,19.90
2019-06-15T04:20:55.761Z,20.00
2019-06-15T04:23:22.549Z,20.10
2019-06-15T04:25:49.452Z,19.90
2019-06-15T04:28:16.366Z,19.50
2019-06-15T04:30:43.137Z,19.40
2019-06-15T04:33:09.953Z,18.70
2019-06-15T04:35:36.744Z,18.40
2019-06-15T04:38:03.631Z,18.40
2019-06-15T04:40:30.454Z,18.80
2019-06-15T04:42:57.238Z,19.20
2019-06-15T04:45:24.029Z,19.40
2019-06-15T04:47:50.819Z,19.50
2019-06-15T04:50:17.706Z,19.80
2019-06-15T04:52:44.621Z,19.80
2019-06-15T04:55:11.593Z,19.90
2019-06-15T04:57:38.485Z,19.90
2019-06-15T05:00:07.205Z,20.10
2019-06-15T05:02:34.039Z,20.10
2019-06-15T05:05:00.997Z,19.90
2019-06-15T05:07:27.817Z,20.10
2019-06-15T05:09:54.594Z,20.40
2019-06-15T05:12:21.490Z,20.40
2019-06-15T05:14:48.448Z,20.40
2019-06-15T05:17:15.338Z,20.40
2019-06-15T05:19:42.122Z,20.10
2019-06-15T05:22:08.964Z,20.30
2019-06-15T05:24:35.883Z,20.40
2019-06-15T05:27:06.261Z,20.50
2019-06-15T05:29:31.572Z,20.70
2019-06-15T05:31:58.446Z,20.80
2019-06-15T05:34:25.238Z,20.90
2019-06-15T05:36:52.081Z,20.60
2019-06-15T05:39:18.871Z,20.80
2019-06-15T05:41:45.746Z,20.70
2019-06-15T05:44:12.564Z,20.70
2019-06-15T05:46:39.342Z,21.10
2019-06-15T05:49:06.141Z,21.40
2019-06-15T05:51:32.966Z,21.70
2019-06-15T05:53:59.757Z,21.60
2019-06-15T05:56:26.554Z,21.40
2019-06-15T05:58:53.370Z,21.20
2019-06-15T06:01:39.820Z,20.90
2019-06-15T06:04:06.895Z,20.80
2019-06-15T06:06:33.670Z,20.80
2019-06-15T06:09:00.469Z,21.00
2019-06-15T06:11:27.272Z,20.90
2019-06-15T06:13:54.248Z,20.90
2019-06-15T06:16:21.059Z,20.90
2019-06-15T06:18:48.062Z,20.80
2019-06-15T06:21:14.896Z,20.70
2019-06-15T06:23:41.717Z,20.80
2019-06-15T06:26:08.689Z,20.90
2019-06-15T06:28:35.606Z,21.00
2019-06-15T06:31:02.501Z,21.10
2019-06-15T06:33:29.285Z,21.30
2019-06-15T06:35:56.058Z,21.40
2019-06-15T06:38:22.973Z,21.30
2019-06-15T06:40:49.740Z,21.40
2019-06-15T06:43:16.561Z,21.50
2019-06-15T06:45:43.545Z,21.50
2019-06-15T06:48:10.522Z,21.70
2019-06-15T06:50:37.389Z,21.80
2019-06-15T06:53:04.269Z,21.80
2019-06-15T06:55:31.064Z,21.90
2019-06-15T06:57:57.877Z,22.00
2019-06-15T07:00:24.886Z,21.90
2019-06-15T07:02:51.690Z,21.90
2019-06-15T07:05:18.851Z,22.10
2019-06-15T07:07:45.873Z,22.00
2019-06-15T07:10:12.877Z,21.90
2019-06-15T07:12:39.704Z,22.00
2019-06-15T07:15:07.227Z,22.00
2019-06-15T07:17:34.117Z,21.90
2019-06-15T07:20:01.045Z,22.10
2019-06-15T07:22:27.854Z,22.20
2019-06-15T07:24:54.658Z,22.30
2019-06-15T07:27:21.656Z,22.50
2019-06-15T07:29:48.488Z,22.70
2019-06-15T07:32:15.519Z,22.70
2019-06-15T07:34:42.343Z,22.70
2019-06-15T07:37:09.221Z,22.80
2019-06-15T07:39:36.042Z,22.90
2019-06-15T07:42:02.950Z,22.90
2019-06-15T07:44:29.961Z,23.00
2019-06-15T07:46:56.860Z,23.00
2019-06-15T07:49:23.650Z,23.20
2019-06-15T07:51:50.475Z,23.20
2019-06-15T07:54:17.342Z,23.00
2019-06-15T07:56:44.122Z,22.80
2019-06-15T07:59:10.969Z,22.90
2019-06-15T08:01:37.884Z,22.90
2019-06-15T08:04:04.787Z,23.00
2019-06-15T08:06:31.627Z,23.00
2019-06-15T08:08:58.420Z,23.00
2019-06-15T08:11:25.345Z,23.10
2019-06-15T08:13:52.990Z,22.80
2019-06-15T08:16:19.817Z,22.90
2019-06-15T08:18:46.623Z,22.90
2019-06-15T08:21:13.464Z,22.80
2019-06-15T08:23:40.382Z,22.70
2019-06-15T08:26:07.170Z,22.60
2019-06-15T08:28:40.253Z,22.50
2019-06-15T08:31:02.990Z,22.40
2019-06-15T08:33:29.766Z,22.40
2019-06-15T08:35:56.590Z,22.30
2019-06-15T08:38:23.449Z,22.10
2019-06-15T08:40:50.274Z,22.00
2019-06-15T08:43:17.191Z,21.90
2019-06-15T08:45:44.077Z,21.80
2019-06-15T08:48:10.880Z,21.80
2019-06-15T08:50:37.902Z,21.70
2019-06-15T08:53:04.704Z,21.70
2019-06-15T08:55:31.518Z,21.80
2019-06-15T08:57:58.298Z,21.80
2019-06-15T09:00:25.287Z,21.80
2019-06-15T09:02:52.127Z,21.90
2019-06-15T09:05:19.310Z,22.00
2019-06-15T09:07:46.284Z,22.20
2019-06-15T09:10:13.602Z,22.40
2019-06-15T09:12:40.401Z,22.90
2019-06-15T09:15:07.801Z,23.20
2019-06-15T09:17:34.910Z,23.70
2019-06-15T09:20:01.891Z,24.00
2019-06-15T09:22:28.692Z,23.90
2019-06-15T09:24:55.514Z,23.80
2019-06-15T09:27:23.199Z,23.90
2019-06-15T09:29:53.379Z,24.10
2019-06-15T09:32:20.310Z,24.20
2019-06-15T09:34:47.090Z,24.30
2019-06-15T09:37:13.979Z,24.20
2019-06-15T09:39:40.831Z,24.30
2019-06-15T09:42:07.618Z,24.20
2019-06-15T09:44:34.403Z,23.80
2019-06-15T09:47:01.324Z,23.60
2019-06-15T09:49:28.304Z,23.70
2019-06-15T09:51:55.113Z,23.60
2019-06-15T09:54:21.972Z,23.60
2019-06-15T09:56:48.812Z,23.20
2019-06-15T09:59:25.611Z,23.00
2019-06-15T10:01:44.412Z,23.10
2019-06-15T10:04:11.181Z,23.10
2019-06-15T10:06:38.011Z,22.90
2019-06-15T10:09:05.586Z,22.90
2019-06-15T10:11:32.606Z,22.90
2019-06-15T10:13:59.385Z,22.80
2019-06-15T10:16:26.273Z,22.60
2019-06-15T10:18:53.177Z,22.50
2019-06-15T10:21:19.966Z,22.30
2019-06-15T10:23:46.774Z,22.10
2019-06-15T10:26:13.570Z,22.00
2019-06-15T10:28:40.359Z,21.90
2019-06-15T10:31:07.198Z,21.80
2019-06-15T10:33:34.111Z,21.80
2019-06-15T10:36:01.106Z,21.70
2019-06-15T10:38:27.924Z,21.60
2019-06-15T10:40:54.709Z,21.50
2019-06-15T10:43:21.516Z,21.40
2019-06-15T10:45:48.336Z,21.30
2019-06-15T10:48:15.214Z,21.20
2019-06-15T10:50:42.037Z,21.10
2019-06-15T10:53:08.925Z,21.10
2019-06-15T10:55:35.734Z,21.00
2019-06-15T10:58:02.661Z,20.90
2019-06-15T11:00:29.757Z,20.90
2019-06-15T11:02:56.636Z,20.70
2019-06-15T11:05:23.560Z,20.70
2019-06-15T11:07:50.355Z,20.60
2019-06-15T11:10:37.354Z,20.50
2019-06-15T11:13:04.259Z,20.40
2019-06-15T11:15:32.040Z,20.30
2019-06-15T11:17:59.978Z,20.20
2019-06-15T11:20:26.870Z,20.00
2019-06-15T11:22:53.650Z,19.90
2019-06-15T11:25:20.734Z,19.80
2019-06-15T11:27:47.526Z,19.80
2019-06-15T11:30:14.811Z,19.60
2019-06-15T11:32:41.770Z,19.60
2019-06-15T11:35:08.881Z,19.60
2019-06-15T11:37:35.665Z,19.60
2019-06-15T11:40:02.833Z,19.60
2019-06-15T11:42:29.631Z,19.50
2019-06-15T11:44:56.434Z,19.40
2019-06-15T11:47:23.325Z,19.30
2019-06-15T11:49:50.235Z,19.10
2019-06-15T11:52:17.080Z,19.00
2019-06-15T11:54:43.882Z,19.00
2019-06-15T11:57:10.791Z,18.90
2019-06-15T11:59:37.786Z,18.70
2019-06-15T12:02:04.655Z,18.60
2019-06-15T12:04:31.442Z,18.40
2019-06-15T12:06:58.245Z,18.40
2019-06-15T12:09:25.042Z,18.40
2019-06-15T12:11:51.821Z,18.20
2019-06-15T12:14:18.621Z,18.10
2019-06-15T12:16:45.405Z,18.00
2019-06-15T12:19:12.173Z,17.90
2019-06-15T12:21:38.962Z,17.80
2019-06-15T12:24:05.770Z,17.60
2019-06-15T12:26:32.686Z,17.50
2019-06-15T12:28:59.470Z,17.40
2019-06-15T12:31:26.362Z,17.30
2019-06-15T12:33:53.179Z,17.20
2019-06-15T12:36:19.966Z,17.10
2019-06-15T12:38:46.730Z,16.90
2019-06-15T12:41:13.645Z,16.80
2019-06-15T12:43:40.419Z,16.70
2019-06-15T12:46:07.302Z,16.70
2019-06-15T12:48:34.219Z,16.60
2019-06-15T12:51:01.005Z,16.60
2019-06-15T12:53:27.782Z,16.50
2019-06-15T12:55:54.715Z,16.40
2019-06-15T12:58:21.526Z,16.40
2019-06-15T13:01:01.717Z,16.30
2019-06-15T13:03:17.032Z,16.30
2019-06-15T13:05:43.944Z,16.30
2019-06-15T13:08:10.923Z,16.40
2019-06-15T13:10:37.737Z,16.40
2019-06-15T13:13:04.621Z,16.40
2019-06-15T13:15:31.598Z,16.50
2019-06-15T13:17:59.552Z,16.50
2019-06-15T13:20:28.458Z,16.50
2019-06-15T13:22:55.268Z,16.50
2019-06-15T13:25:22.161Z,16.50
2019-06-15T13:27:48.948Z,16.50
2019-06-15T13:30:18.346Z,16.40
2019-06-15T13:32:45.298Z,16.40
2019-06-15T13:35:12.118Z,16.40
2019-06-15T13:37:42.282Z,16.30
2019-06-15T13:40:08.002Z,16.20
2019-06-15T13:42:34.789Z,16.20
2019-06-15T13:45:01.731Z,16.20
2019-06-15T13:47:28.574Z,16.20
2019-06-15T13:49:55.433Z,16.20
2019-06-15T13:52:22.254Z,16.10
2019-06-15T13:54:49.055Z,16.10
2019-06-15T13:57:15.831Z,16.00
2019-06-15T13:59:42.646Z,15.90
2019-06-15T14:02:09.526Z,15.80
2019-06-15T14:04:36.320Z,15.80
2019-06-15T14:07:03.245Z,15.80
2019-06-15T14:09:30.139Z,15.70
2019-06-15T14:11:56.911Z,15.70
2019-06-15T14:14:23.711Z,15.60
2019-06-15T14:16:50.539Z,15.50
2019-06-15T14:19:17.383Z,15.50
2019-06-15T14:21:44.181Z,15.40
2019-06-15T14:24:11.121Z,15.40
2019-06-15T14:26:37.935Z,15.40
2019-06-15T14:29:04.865Z,15.40
2019-06-15T14:31:31.646Z,15.40
2019-06-15T14:33:58.583Z,15.50
2019-06-15T14:36:25.470Z,15.40
2019-06-15T14:38:52.259Z,15.50
2019-06-15T14:41:19.190Z,15.60
2019-06-15T14:43:45.966Z,15.70
2019-06-15T14:46:12.752Z,15.80
2019-06-15T14:48:39.553Z,16.00
2019-06-15T14:51:06.342Z,16.00
2019-06-15T14:53:33.143Z,16.10
2019-06-15T14:55:59.986Z,16.20
2019-06-15T14:58:26.858Z,16.10
2019-06-15T15:00:53.780Z,16.10
2019-06-15T15:03:20.598Z,16.20
2019-06-15T15:05:47.474Z,16.30
2019-06-15T15:08:14.510Z,16.40
2019-06-15T15:10:41.455Z,16.50
2019-06-15T15:13:08.339Z,16.60
2019-06-15T15:15:36.425Z,16.80
2019-06-15T15:18:03.647Z,16.90
2019-06-15T15:20:30.594Z,16.90
2019-06-15T15:22:57.477Z,17.00
2019-06-15T15:25:26.287Z,17.00
2019-06-15T15:27:52.989Z,17.10
2019-06-15T15:30:28.763Z,17.20
2019-06-15T15:32:57.181Z,17.30
2019-06-15T15:35:26.637Z,17.40
2019-06-15T15:37:52.959Z,17.50
2019-06-15T15:40:19.842Z,17.50
2019-06-15T15:42:46.732Z,17.50
2019-06-15T15:45:14.103Z,17.60
2019-06-15T15:47:44.297Z,17.70
2019-06-15T15:50:11.283Z,17.70
2019-06-15T15:52:38.092Z,17.70
2019-06-15T15:55:06.661Z,17.60
2019-06-15T15:57:36.137Z,17.40
2019-06-15T16:00:03.047Z,17.40
2019-06-15T16:02:44.555Z,17.40
2019-06-15T16:04:58.622Z,17.40
2019-06-15T16:07:27.894Z,17.50
2019-06-15T16:09:54.225Z,17.50
2019-06-15T16:12:21.102Z,17.50
2019-06-15T16:14:47.882Z,17.60
2019-06-15T16:17:14.673Z,17.60
2019-06-15T16:19:41.556Z,17.70
2019-06-15T16:22:08.586Z,17.70
2019-06-15T16:24:37.499Z,17.80
2019-06-15T16:27:04.254Z,17.70
2019-06-15T16:29:31.040Z,17.60
2019-06-15T16:31:57.850Z,17.40
2019-06-15T16:34:26.831Z,17.10
2019-06-15T16:36:53.438Z,16.80
2019-06-15T16:39:20.461Z,16.60
2019-06-15T16:41:47.349Z,16.60
2019-06-15T16:44:14.139Z,16.60
2019-06-15T16:46:40.966Z,16.70
2019-06-15T16:49:07.766Z,16.70
2019-06-15T16:51:36.122Z,16.70
2019-06-15T16:54:06.138Z,16.60
2019-06-15T16:56:32.173Z,16.70
2019-06-15T16:58:58.999Z,16.70
2019-06-15T17:01:27.544Z,16.80
2019-06-15T17:03:56.770Z,16.80
2019-06-15T17:06:23.280Z,16.80
2019-06-15T17:08:50.115Z,16.80
2019-06-15T17:11:17.451Z,16.80
2019-06-15T17:13:44.504Z,16.80
2019-06-15T17:16:11.295Z,16.80
2019-06-15T17:18:38.123Z,16.80
2019-06-15T17:21:07.123Z,16.80
2019-06-15T17:23:33.706Z,16.80
2019-06-15T17:26:00.573Z,16.80
2019-06-15T17:28:27.388Z,16.70
2019-06-15T17:30:56.235Z,16.70
2019-06-15T17:33:34.212Z,16.60
2019-06-15T17:36:02.187Z,16.50
2019-06-15T17:38:23.175Z,16.40
2019-06-15T17:40:50.214Z,16.40
2019-06-15T17:43:17.115Z,16.40
2019-06-15T17:45:46.539Z,16.30
2019-06-15T17:48:12.854Z,16.30
2019-06-15T17:50:41.242Z,16.30
2019-06-15T17:53:08.229Z,16.30
2019-06-15T17:55:36.688Z,16.30
2019-06-15T17:58:06.329Z,16.20
2019-06-15T18:00:41.220Z,16.20
2019-06-15T18:03:08.643Z,16.10
2019-06-15T18:05:36.958Z,16.10
2019-06-15T18:08:06.535Z,16.10
2019-06-15T18:10:32.892Z,16.20
2019-06-15T18:12:59.766Z,16.20
2019-06-15T18:15:26.826Z,16.20
2019-06-15T18:17:53.631Z,16.20
2019-06-15T18:20:22.714Z,16.20
2019-06-15T18:22:49.722Z,16.20
2019-06-15T18:25:16.501Z,16.20
2019-06-15T18:27:43.305Z,16.20
2019-06-15T18:30:10.509Z,16.20
2019-06-15T18:32:38.009Z,16.20
2019-06-15T18:35:06.125Z,16.30
2019-06-15T18:37:33.199Z,16.30
2019-06-15T18:39:59.993Z,16.40
2019-06-15T18:42:26.806Z,16.40
2019-06-15T18:44:56.062Z,16.40
2019-06-15T18:47:22.286Z,16.40
2019-06-15T18:49:49.118Z,16.40
2019-06-15T18:52:17.098Z,16.50
2019-06-15T18:54:46.546Z,16.50
2019-06-15T18:57:12.830Z,16.50
2019-06-15T18:59:39.733Z,16.50
2019-06-15T19:02:06.759Z,16.60
2019-06-15T19:04:33.742Z,16.60
2019-06-15T19:07:00.533Z,16.60
2019-06-15T19:09:27.330Z,16.70
2019-06-15T19:11:56.481Z,16.50
2019-06-15T19:14:22.878Z,16.40
2019-06-15T19:16:49.670Z,16.30
2019-06-15T19:19:17.092Z,16.30
2019-06-15T19:21:46.158Z,16.20
2019-06-15T19:24:13.067Z,16.20
2019-06-15T19:26:39.861Z,16.20
2019-06-15T19:29:06.676Z,16.20
2019-06-15T19:31:33.658Z,16.20
2019-06-15T19:34:00.480Z,16.20
2019-06-15T19:36:27.347Z,16.20
2019-06-15T19:38:54.187Z,16.20
2019-06-15T19:41:20.982Z,16.20
2019-06-15T19:43:47.782Z,16.10
2019-06-15T19:46:16.857Z,16.10
2019-06-15T19:48:46.166Z,16.10
2019-06-15T19:51:12.949Z,16.10
2019-06-15T19:53:39.862Z,16.00
2019-06-15T19:56:07.028Z,16.00
2019-06-15T19:58:34.110Z,16.00
2019-06-15T20:01:01.176Z,16.00
2019-06-15T20:03:28.027Z,16.00
2019-06-15T20:05:56.831Z,16.00
2019-06-15T20:08:23.694Z,16.00
2019-06-15T20:10:50.585Z,16.00
2019-06-15T20:13:17.483Z,16.00
2019-06-15T20:15:46.697Z,16.00
2019-06-15T20:18:13.174Z,16.00
2019-06-15T20:20:40.015Z,16.00
2019-06-15T20:23:07.442Z,16.00
2019-06-15T20:25:36.769Z,16.00
2019-06-15T20:28:03.331Z,16.00
2019-06-15T20:30:30.142Z,15.90
2019-06-15T20:32:56.977Z,15.90
2019-06-15T20:35:26.182Z,15.90
2019-06-15T20:37:52.497Z,15.80
2019-06-15T20:40:19.615Z,15.80
2019-06-15T20:42:46.497Z,15.80
2019-06-15T20:45:14.397Z,15.80
2019-06-15T20:47:41.274Z,15.80
2019-06-15T20:50:24.365Z,15.90
2019-06-15T20:52:37.501Z,15.90
2019-06-15T20:55:06.443Z,15.90
2019-06-15T20:57:33.242Z,15.90
2019-06-15T21:00:00.038Z,15.80
2019-06-15T21:02:27.110Z,15.80
2019-06-15T21:04:55.970Z,15.80
2019-06-15T21:07:22.949Z,15.70
2019-06-15T21:09:49.839Z,15.70
2019-06-15T21:12:16.728Z,15.70
2019-06-15T21:14:43.623Z,15.70
2019-06-15T21:17:10.515Z,15.70
2019-06-15T21:19:37.363Z,15.70
2019-06-15T21:22:06.300Z,15.70
2019-06-15T21:24:33.028Z,15.70
2019-06-15T21:26:59.844Z,15.80
2019-06-15T21:29:26.694Z,15.80
2019-06-15T21:31:53.590Z,15.80
2019-06-15T21:34:20.419Z,15.80
2019-06-15T21:36:47.278Z,15.80
2019-06-15T21:39:14.065Z,15.80
2019-06-15T21:41:40.859Z,15.80
2019-06-15T21:44:07.686Z,15.80
2019-06-15T21:46:36.144Z,15.80
2019-06-15T21:49:03.426Z,15.80
2019-06-15T21:51:30.266Z,15.80
2019-06-15T21:53:57.059Z,15.80
2019-06-15T21:56:26.757Z,15.80
2019-06-15T21:58:52.575Z,15.80
2019-06-15T22:01:37.069Z,15.80
2019-06-15T22:04:06.403Z,15.80
2019-06-15T22:06:32.774Z,15.80
2019-06-15T22:08:59.661Z,15.80
2019-06-15T22:11:26.742Z,15.70
2019-06-15T22:13:53.630Z,15.70
2019-06-15T22:16:20.439Z,15.70
2019-06-15T22:18:47.657Z,15.70
2019-06-15T22:21:16.130Z,15.70
2019-06-15T22:23:43.181Z,15.70
2019-06-15T22:26:10.007Z,15.70
2019-06-15T22:28:36.905Z,15.70
2019-06-15T22:31:06.438Z,15.70
2019-06-15T22:33:32.727Z,15.60
2019-06-15T22:35:59.625Z,15.60
2019-06-15T22:38:26.502Z,15.70
2019-06-15T22:40:53.429Z,15.70
2019-06-15T22:43:20.206Z,15.70
2019-06-15T22:45:49.862Z,15.60
2019-06-15T22:48:16.459Z,15.60
2019-06-15T22:50:43.621Z,15.70
2019-06-15T22:53:10.514Z,15.70
2019-06-15T22:55:37.338Z,15.70
2019-06-15T22:58:06.282Z,15.60
2019-06-15T23:00:33.941Z,15.60
2019-06-15T23:03:01.044Z,15.60
2019-06-15T23:05:27.845Z,15.60
2019-06-15T23:07:55.992Z,15.60
2019-06-15T23:10:23.029Z,15.60
2019-06-15T23:12:50.026Z,15.60
2019-06-15T23:15:17.534Z,15.60
2019-06-15T23:17:46.597Z,15.60
2019-06-15T23:20:16.903Z,15.60
2019-06-15T23:22:43.018Z,15.60
2019-06-15T23:25:09.861Z,15.50
2019-06-15T23:27:36.738Z,15.50
2019-06-15T23:30:06.588Z,15.50
2019-06-15T23:32:32.862Z,15.50
2019-06-15T23:34:59.696Z,15.50
2019-06-15T23:37:26.850Z,15.50
2019-06-15T23:40:11.862Z,15.50
2019-06-15T23:42:38.798Z,15.50
2019-06-15T23:45:06.847Z,15.50
2019-06-15T23:47:33.846Z,15.50
2019-06-15T23:50:00.766Z,15.50
2019-06-15T23:52:27.646Z,15.50
2019-06-15T23:54:56.879Z,15.40
2019-06-15T23:57:23.258Z,15.40
2019-06-15T23:59:50.169Z,15.40
